Time;durP1;ratioP1;P1;durP2;ratioP2;P2;SDS_P1;SDS_P2;PMS_P1;PMS_P2;Temp;Humidity;BMP_temperature;BMP_pressure;BME280_temperature;BME280_humidity;BME280_pressure;Samples;Min_cycle;Max_cycle;Signal;HPM_P1;HPM_P2
2023/03/01 00:01:24;;;;;;;0.30;0.30;;;;;;;17.90;39.42;102608.91;5127169;28;20043;-51
2023/03/01 00:03:51;;;;;;;0.22;0.22;;;;;;;17.91;39.28;102615.28;5125918;28;20447;-49
2023/03/01 00:06:17;;;;;;;0.30;0.30;;;;;;;17.90;39.36;102619.94;5099060;28;20043;-51
2023/03/01 00:08:43;;;;;;;0.30;0.30;;;;;;;17.89;39.28;102618.28;5127055;28;20414;-50
2023/03/01 00:11:12;;;;;;;0.30;0.30;;;;;;;17.90;39.34;102610.84;5126327;28;20395;-48
2023/03/01 00:13:38;;;;;;;0.30;0.30;;;;;;;17.89;39.39;102618.28;5091499;28;20078;-51
2023/03/01 00:16:06;;;;;;;0.30;0.30;;;;;;;17.90;39.19;102608.09;5109146;28;20055;-49
2023/03/01 00:18:32;;;;;;;0.20;0.20;;;;;;;17.90;39.32;102617.19;5099029;28;20047;-48
2023/03/01 00:20:58;;;;;;;0.30;0.30;;;;;;;17.89;39.41;102621.03;5127369;28;20127;-48
2023/03/01 00:23:24;;;;;;;0.30;0.30;;;;;;;17.90;39.30;102619.94;5127504;28;20046;-51
2023/03/01 00:25:50;;;;;;;0.30;0.30;;;;;;;17.90;39.29;102614.44;5127088;28;20078;-48
2023/03/01 00:28:16;;;;;;;0.28;0.28;;;;;;;17.89;39.29;102614.69;5126844;28;20047;-50
2023/03/01 00:30:41;;;;;;;0.40;0.40;;;;;;;17.88;39.22;102608.31;5127192;28;20082;-47
2023/03/01 00:33:07;;;;;;;0.30;0.30;;;;;;;17.88;39.28;102608.31;5125206;28;20039;-47
2023/03/01 00:35:33;;;;;;;0.20;0.20;;;;;;;17.89;39.53;102611.91;5110374;28;20346;-49
2023/03/01 00:37:59;;;;;;;0.20;0.20;;;;;;;17.89;39.27;102603.66;5107851;28;20344;-48
2023/03/01 00:40:27;;;;;;;0.30;0.30;;;;;;;17.89;39.36;102598.13;5126942;28;20043;-47
2023/03/01 00:42:52;;;;;;;0.20;0.20;;;;;;;17.88;39.35;102599.22;5127770;28;20071;-46
2023/03/01 00:45:18;;;;;;;0.30;0.30;;;;;;;17.88;39.22;102593.72;5109230;28;20066;-48
2023/03/01 00:47:44;;;;;;;0.20;0.20;;;;;;;17.88;39.37;102600.06;5108552;28;20043;-47
2023/03/01 00:50:11;;;;;;;0.30;0.30;;;;;;;17.87;39.55;102590.09;5113285;28;20058;-48
2023/03/01 00:52:36;;;;;;;0.30;0.30;;;;;;;17.88;39.26;102590.94;5107727;28;20087;-47
2023/03/01 00:55:03;;;;;;;0.20;0.20;;;;;;;17.88;39.18;102590.94;5115791;28;20048;-51
2023/03/01 00:57:29;;;;;;;0.20;0.20;;;;;;;17.88;39.26;102582.69;5098019;28;20055;-48
2023/03/01 00:59:54;;;;;;;0.30;0.30;;;;;;;17.88;39.40;102582.69;5125943;27;20508;-49
2023/03/01 01:02:20;;;;;;;0.20;0.20;;;;;;;17.88;39.26;102582.69;5126864;27;20047;-48
2023/03/01 01:04:46;;;;;;;0.30;0.30;;;;;;;17.87;39.29;102584.56;5114600;28;20053;-49
2023/03/01 01:07:13;;;;;;;0.20;0.20;;;;;;;17.88;39.26;102589.03;5100497;28;20146;-50
2023/03/01 01:09:38;;;;;;;0.30;0.30;;;;;;;17.88;39.34;102588.19;5087703;28;20075;-50
2023/03/01 01:12:04;;;;;;;0.30;0.30;;;;;;;17.87;39.21;102583.72;5115718;28;20047;-48
2023/03/01 01:14:30;;;;;;;0.30;0.30;;;;;;;17.87;39.20;102587.31;5109226;28;20043;-50
2023/03/01 01:16:56;;;;;;;0.30;0.30;;;;;;;17.87;39.29;102581.81;5127511;28;20073;-49
2023/03/01 01:19:22;;;;;;;0.30;0.30;;;;;;;17.87;39.09;102579.06;5114275;28;20047;-48
2023/03/01 01:21:48;;;;;;;0.30;0.30;;;;;;;17.87;39.19;102576.31;5102531;28;20096;-48
2023/03/01 01:24:14;;;;;;;0.30;0.30;;;;;;;17.86;39.27;102563.59;5125889;28;20419;-48
2023/03/01 01:26:40;;;;;;;0.30;0.30;;;;;;;17.87;39.20;102565.28;5108214;28;20103;-51
2023/03/01 01:29:06;;;;;;;0.30;0.30;;;;;;;17.87;39.18;102553.41;5087932;28;20051;-51
2023/03/01 01:31:33;;;;;;;0.30;0.30;;;;;;;17.87;39.40;102545.16;5071252;28;20074;-50
2023/03/01 01:34:00;;;;;;;0.30;0.30;;;;;;;17.87;39.29;102545.16;5113862;28;20047;-50
2023/03/01 01:36:26;;;;;;;0.30;0.30;;;;;;;17.87;39.04;102545.16;5114450;28;20495;-51
2023/03/01 01:38:52;;;;;;;0.30;0.30;;;;;;;17.86;39.12;102544.31;5107675;28;20043;-50
2023/03/01 01:41:18;;;;;;;0.32;0.32;;;;;;;17.86;39.45;102544.31;5109176;28;20150;-49
2023/03/01 01:43:47;;;;;;;0.30;0.30;;;;;;;17.87;39.14;102542.38;5092205;28;20054;-49
2023/03/01 01:46:30;;;;;;;0.30;0.30;;;;;;;17.87;39.19;102542.38;5092229;28;20043;-48
2023/03/01 01:49:01;;;;;;;0.30;0.30;;;;;;;17.86;39.30;102529.69;5108905;28;20240;-48
2023/03/01 01:51:38;;;;;;;0.30;0.30;;;;;;;17.86;39.43;102533.28;5126552;28;20074;-50
2023/03/01 01:54:09;;;;;;;0.30;0.30;;;;;;;17.87;39.26;102517.59;5118336;27;20512;-47
2023/03/01 01:56:37;;;;;;;0.30;0.30;;;;;;;17.86;39.05;102515.91;5088807;28;20082;-48
2023/03/01 01:59:02;;;;;;;0.30;0.30;;;;;;;17.86;39.18;102510.41;5124962;28;20051;-49
2023/03/01 02:01:28;;;;;;;0.30;0.30;;;;;;;17.85;39.28;102508.72;5126489;28;20361;-48
2023/03/01 02:03:54;;;;;;;0.30;0.30;;;;;;;17.86;39.30;102513.16;5119496;27;20047;-49
2023/03/01 02:06:41;;;;;;;0.30;0.30;;;;;;;17.85;39.36;102504.06;5107368;28;20047;-48
2023/03/01 02:09:12;;;;;;;0.30;0.30;;;;;;;17.86;39.26;102504.88;5093707;28;20516;-51
2023/03/01 02:11:38;;;;;;;0.30;0.30;;;;;;;17.86;39.32;102513.16;5106429;28;20044;-51
2023/03/01 02:14:04;;;;;;;0.30;0.30;;;;;;;17.85;39.17;102515.06;5117424;28;20598;-49
2023/03/01 02:16:30;;;;;;;0.30;0.30;;;;;;;17.86;39.24;102510.41;5113822;27;20411;-50
2023/03/01 02:18:57;;;;;;;0.30;0.30;;;;;;;17.85;39.24;102509.56;5089744;28;20411;-48
2023/03/01 02:21:34;;;;;;;0.30;0.30;;;;;;;17.86;39.28;102524.19;5103666;28;20080;-51
2023/03/01 02:24:08;;;;;;;0.30;0.30;;;;;;;17.85;39.27;102517.84;5119912;28;20043;-50
2023/03/01 02:26:40;;;;;;;0.30;0.30;;;;;;;17.85;39.28;102531.63;5125979;28;20047;-50
2023/03/01 02:29:06;;;;;;;0.30;0.30;;;;;;;17.86;39.04;102521.44;5109210;28;20107;-48
2023/03/01 02:31:47;;;;;;;0.30;0.30;;;;;;;17.85;39.30;102520.59;5126125;28;20047;-51
2023/03/01 02:34:15;;;;;;;0.30;0.30;;;;;;;17.85;39.27;102522.50;5119502;28;20142;-50
2023/03/01 02:36:46;;;;;;;0.30;0.30;;;;;;;17.85;39.28;102525.25;5104012;28;20051;-47
2023/03/01 02:39:16;;;;;;;0.30;0.30;;;;;;;17.85;39.36;102522.50;5106112;28;20075;-51
2023/03/01 02:41:46;;;;;;;0.30;0.30;;;;;;;17.84;39.45;102513.41;5098590;28;20468;-47
2023/03/01 02:44:12;;;;;;;0.30;0.30;;;;;;;17.84;39.24;102516.16;5096065;28;20047;-50
2023/03/01 02:46:48;;;;;;;0.38;0.38;;;;;;;17.85;39.14;102511.47;5126366;28;20530;-48
2023/03/01 02:49:19;;;;;;;0.30;0.30;;;;;;;17.85;39.24;102511.47;5090269;27;20050;-51
2023/03/01 02:51:56;;;;;;;0.30;0.30;;;;;;;17.84;39.22;102498.78;5107892;28;20288;-48
2023/03/01 02:54:28;;;;;;;0.30;0.30;;;;;;;17.84;39.20;102505.13;5108846;28;20097;-48
2023/03/01 02:56:54;;;;;;;0.30;0.30;;;;;;;17.84;39.15;102516.16;5124519;28;20058;-49
2023/03/01 02:59:22;;;;;;;0.30;0.30;;;;;;;17.84;39.02;102513.41;5124660;28;20043;-52
2023/03/01 03:01:48;;;;;;;0.30;0.30;;;;;;;17.85;39.11;102508.72;5102565;28;20530;-49
2023/03/01 03:04:17;;;;;;;0.30;0.30;;;;;;;17.84;39.17;102513.41;5116303;27;20484;-51
2023/03/01 03:06:45;;;;;;;0.22;0.22;;;;;;;17.84;39.29;102502.38;5088171;28;20113;-51
2023/03/01 03:09:11;;;;;;;0.30;0.30;;;;;;;17.84;39.36;102507.88;5109315;28;20086;-51
2023/03/01 03:11:39;;;;;;;0.30;0.30;;;;;;;17.84;39.25;102507.88;5125557;28;20576;-47
2023/03/01 03:14:05;;;;;;;0.20;0.20;;;;;;;17.85;39.31;102505.97;5126426;28;20051;-49
2023/03/01 03:16:31;;;;;;;0.20;0.20;;;;;;;17.83;38.95;102503.44;5118853;27;20054;-50
2023/03/01 03:19:04;;;;;;;0.30;0.30;;;;;;;17.83;39.20;102503.44;5130169;27;20499;-50
2023/03/01 03:21:32;;;;;;;0.30;0.30;;;;;;;17.84;39.01;102504.28;5125386;28;20067;-51
2023/03/01 03:23:57;;;;;;;0.30;0.30;;;;;;;17.83;39.29;102491.56;5100976;28;20079;-48
2023/03/01 03:26:24;;;;;;;0.32;0.32;;;;;;;17.83;39.17;102497.06;5125121;28;20058;-48
2023/03/01 03:28:50;;;;;;;0.30;0.30;;;;;;;17.83;39.32;102494.31;5125949;27;20055;-48
2023/03/01 03:31:16;;;;;;;0.30;0.30;;;;;;;17.82;39.33;102487.97;5125999;28;20049;-47
2023/03/01 03:33:41;;;;;;;0.30;0.30;;;;;;;17.83;39.30;102486.88;5109739;28;20476;-48
2023/03/01 03:36:12;;;;;;;0.30;0.30;;;;;;;17.83;39.19;102495.16;5129559;28;20051;-48
2023/03/01 03:38:39;;;;;;;0.30;0.30;;;;;;;17.83;39.28;102492.41;5106450;28;20050;-47
2023/03/01 03:41:07;;;;;;;0.20;0.20;;;;;;;17.84;39.07;102496.03;5128254;28;20499;-48
2023/03/01 03:43:35;;;;;;;0.20;0.20;;;;;;;17.82;39.29;102487.13;5115341;28;20491;-47
2023/03/01 03:46:05;;;;;;;0.30;0.30;;;;;;;17.82;39.12;102487.97;5093762;28;20051;-48
2023/03/01 03:48:33;;;;;;;0.30;0.30;;;;;;;17.82;39.38;102476.13;5110560;28;20542;-47
2023/03/01 03:50:59;;;;;;;0.20;0.20;;;;;;;17.81;39.25;102478.03;5128673;28;20380;-51
2023/03/01 03:53:26;;;;;;;0.30;0.30;;;;;;;17.82;39.17;102479.72;5124802;28;20055;-50
2023/03/01 03:55:52;;;;;;;0.40;0.40;;;;;;;17.82;39.21;102471.44;5117737;28;20066;-51
2023/03/01 03:58:20;;;;;;;0.30;0.30;;;;;;;17.81;39.17;102478.03;5092525;28;20038;-49
2023/03/01 04:00:47;;;;;;;0.20;0.20;;;;;;;17.82;39.13;102476.94;5109475;28;20479;-49
2023/03/01 04:03:15;;;;;;;0.30;0.30;;;;;;;17.82;39.15;102482.47;5127248;28;20047;-48
2023/03/01 04:05:41;;;;;;;0.30;0.30;;;;;;;17.82;39.13;102482.47;5129207;28;20475;-49
2023/03/01 04:08:07;;;;;;;0.30;0.30;;;;;;;17.82;39.21;102473.34;5092078;28;20050;-50
2023/03/01 04:10:37;;;;;;;0.30;0.30;;;;;;;17.81;39.18;102469.75;5126079;28;20051;-50
2023/03/01 04:13:03;;;;;;;0.30;0.30;;;;;;;17.83;39.12;102469.53;5111245;28;20074;-50
2023/03/01 04:15:31;;;;;;;0.30;0.30;;;;;;;17.81;39.21;102455.97;5106772;27;20079;-51
2023/03/01 04:17:56;;;;;;;0.30;0.30;;;;;;;17.80;39.14;102455.16;5120787;28;20047;-50
2023/03/01 04:20:25;;;;;;;0.30;0.30;;;;;;;17.80;39.24;102455.16;5127536;28;20043;-52
2023/03/01 04:22:52;;;;;;;0.30;0.30;;;;;;;17.80;39.16;102455.16;5106405;28;20043;-51
2023/03/01 04:25:19;;;;;;;0.30;0.30;;;;;;;17.82;39.07;102445.81;5107476;28;20215;-50
2023/03/01 04:27:44;;;;;;;0.30;0.30;;;;;;;17.81;39.20;102447.72;5126485;28;20089;-50
2023/03/01 04:30:10;;;;;;;0.30;0.30;;;;;;;17.83;39.05;102450.22;5126571;28;20123;-51
2023/03/01 04:32:36;;;;;;;0.40;0.40;;;;;;;17.80;39.28;102446.03;5126971;27;20046;-48
2023/03/01 04:35:02;;;;;;;0.20;0.20;;;;;;;17.82;39.16;102445.81;5110922;27;20047;-48
2023/03/01 04:37:27;;;;;;;0.30;0.30;;;;;;;17.79;38.96;102442.47;5107879;28;20521;-49
2023/03/01 04:39:53;;;;;;;0.30;0.30;;;;;;;17.81;39.33;102444.97;5126262;28;20154;-49
2023/03/01 04:42:19;;;;;;;0.30;0.30;;;;;;;17.80;39.19;102452.41;5126897;27;20414;-50
2023/03/01 04:44:45;;;;;;;0.30;0.30;;;;;;;17.80;39.17;102444.13;5123662;27;20066;-51
2023/03/01 04:47:11;;;;;;;0.30;0.30;;;;;;;17.81;39.18;102444.97;5126739;28;20053;-51
2023/03/01 04:49:37;;;;;;;0.30;0.30;;;;;;;17.80;39.22;102449.63;5087641;28;20050;-52
2023/03/01 04:52:03;;;;;;;0.30;0.30;;;;;;;17.79;39.09;102447.97;5088460;28;20138;-50
2023/03/01 04:54:30;;;;;;;0.30;0.30;;;;;;;17.80;38.96;102448.81;5120164;28;20047;-51
2023/03/01 04:56:56;;;;;;;0.30;0.30;;;;;;;17.80;39.06;102449.63;5094008;28;20080;-51
2023/03/01 04:59:22;;;;;;;0.30;0.30;;;;;;;17.81;39.09;102450.47;5126511;27;20413;-48
2023/03/01 05:01:50;;;;;;;0.30;0.30;;;;;;;17.80;39.15;102444.13;5125583;28;20282;-49
2023/03/01 05:04:15;;;;;;;0.63;0.50;;;;;;;17.80;39.09;102440.53;5109056;28;20051;-50
2023/03/01 05:06:41;;;;;;;0.30;0.30;;;;;;;17.80;39.41;102444.13;5126360;28;20476;-50
2023/03/01 05:09:07;;;;;;;0.30;0.30;;;;;;;17.79;39.15;102447.97;5125877;28;20043;-51
2023/03/01 05:11:35;;;;;;;0.30;0.30;;;;;;;17.79;39.01;102450.72;5127584;28;20047;-50
2023/03/01 05:14:02;;;;;;;0.30;0.30;;;;;;;17.79;39.06;102442.47;5094797;28;20051;-51
2023/03/01 05:16:28;;;;;;;0.30;0.30;;;;;;;17.78;39.26;102443.50;5122790;28;20411;-51
2023/03/01 05:18:55;;;;;;;0.30;0.30;;;;;;;17.79;39.02;102436.09;5127251;28;20043;-48
2023/03/01 05:21:21;;;;;;;0.30;0.30;;;;;;;17.79;39.08;102445.22;5125382;27;20483;-51
2023/03/01 05:23:46;;;;;;;0.30;0.30;;;;;;;17.79;38.96;102427.84;5108078;28;20055;-47
2023/03/01 05:26:12;;;;;;;0.35;0.35;;;;;;;17.78;39.16;102429.72;5108211;28;20075;-50
2023/03/01 05:28:58;;;;;;;0.30;0.30;;;;;;;17.78;39.15;102421.47;5104263;28;20719;-50
2023/03/01 05:31:23;;;;;;;0.30;0.30;;;;;;;17.78;39.14;102424.22;5120315;28;20078;-52
2023/03/01 05:33:49;;;;;;;0.30;0.30;;;;;;;17.78;39.15;102429.72;5121087;27;20536;-51
2023/03/01 05:36:15;;;;;;;0.30;0.30;;;;;;;17.79;39.09;102430.59;5106740;28;20047;-50
2023/03/01 05:38:40;;;;;;;0.30;0.30;;;;;;;17.79;39.09;102425.91;5115615;28;20857;-50
2023/03/01 05:41:14;;;;;;;0.30;0.30;;;;;;;17.78;39.15;102415.94;5124863;28;20047;-51
2023/03/01 05:43:41;;;;;;;0.30;0.30;;;;;;;17.78;39.21;102412.34;5122833;28;20046;-50
2023/03/01 05:46:10;;;;;;;0.20;0.20;;;;;;;17.78;39.18;102420.63;5120499;28;20554;-51
2023/03/01 05:48:38;;;;;;;0.30;0.30;;;;;;;17.78;39.11;102415.09;5116677;27;20047;-51
2023/03/01 05:51:04;;;;;;;0.30;0.30;;;;;;;17.78;38.97;102415.09;5125298;28;20705;-51
2023/03/01 05:53:30;;;;;;;0.30;0.30;;;;;;;17.78;39.06;102420.63;5100712;28;20043;-51
2023/03/01 05:55:55;;;;;;;0.25;0.25;;;;;;;17.78;39.01;102418.69;5124359;27;20049;-51
2023/03/01 05:58:21;;;;;;;0.20;0.20;;;;;;;17.78;39.08;102417.88;5119680;28;20414;-49
2023/03/01 06:00:48;;;;;;;0.30;0.30;;;;;;;17.78;39.03;102417.88;5115161;28;20048;-49
2023/03/01 06:03:15;;;;;;;0.30;0.30;;;;;;;17.78;39.07;102426.97;5094548;28;20483;-49
2023/03/01 06:05:42;;;;;;;0.30;0.30;;;;;;;17.77;39.16;102436.31;5079064;28;20480;-51
2023/03/01 06:08:09;;;;;;;0.30;0.30;;;;;;;17.78;39.11;102428.88;5110043;28;20062;-50
2023/03/01 06:10:35;;;;;;;0.30;0.30;;;;;;;17.78;39.12;102434.41;5106765;28;20074;-47
2023/03/01 06:13:00;;;;;;;0.30;0.30;;;;;;;17.78;39.15;102428.88;5101640;28;20042;-51
2023/03/01 06:15:26;;;;;;;0.30;0.30;;;;;;;17.78;39.08;102423.38;5117925;28;20035;-50
2023/03/01 06:17:54;;;;;;;0.30;0.30;;;;;;;17.78;39.11;102418.69;5105898;28;20403;-50
2023/03/01 06:20:22;;;;;;;0.20;0.20;;;;;;;17.78;39.09;102421.47;5104635;28;20079;-48
2023/03/01 06:22:49;;;;;;;0.20;0.20;;;;;;;17.77;39.23;102425.28;5112044;28;20071;-46
2023/03/01 06:25:18;;;;;;;0.20;0.20;;;;;;;17.77;39.25;102416.19;5115136;27;20050;-51
2023/03/01 06:27:45;;;;;;;0.30;0.30;;;;;;;17.77;39.00;102414.28;5102126;28;20070;-51
2023/03/01 06:30:13;;;;;;;0.20;0.20;;;;;;;17.78;39.07;102415.94;5115193;28;20100;-50
2023/03/01 06:32:42;;;;;;;;;;;;;;;17.78;39.26;102412.34;5099172;28;20534;-47
2023/03/01 06:35:10;;;;;;;0.30;0.30;;;;;;;17.77;39.09;102413.44;5118434;27;19927;-49
2023/03/01 06:37:37;;;;;;;0.30;0.30;;;;;;;17.76;38.77;102411.78;5114194;28;20216;-48
2023/03/01 06:40:07;;;;;;;0.30;0.30;;;;;;;17.77;39.16;102410.69;5114560;28;20050;-51
2023/03/01 06:42:35;;;;;;;0.30;0.30;;;;;;;17.76;39.12;102415.34;5085822;28;20078;-46
2023/03/01 06:45:01;;;;;;;0.30;0.30;;;;;;;17.77;39.14;102416.19;5109735;28;20085;-51
2023/03/01 06:47:26;;;;;;;0.30;0.30;;;;;;;17.76;39.18;102414.53;5086780;28;20529;-46
2023/03/01 06:49:52;;;;;;;0.30;0.30;;;;;;;17.77;39.17;102416.19;5111565;27;20096;-49
2023/03/01 06:52:17;;;;;;;0.30;0.30;;;;;;;17.77;39.11;102413.44;5100472;28;20404;-49
2023/03/01 06:54:43;;;;;;;0.30;0.30;;;;;;;17.77;39.11;102417.03;5098139;28;20081;-47
2023/03/01 06:57:09;;;;;;;0.30;0.30;;;;;;;17.76;39.17;102418.13;5107323;27;20043;-49
2023/03/01 06:59:34;;;;;;;0.30;0.30;;;;;;;17.76;39.09;102412.59;5100265;28;20726;-48
2023/03/01 07:02:00;;;;;;;0.30;0.30;;;;;;;17.77;39.04;102413.44;5096945;28;20047;-51
2023/03/01 07:04:28;;;;;;;0.20;0.20;;;;;;;17.77;39.07;102407.94;5096232;28;21460;-50
2023/03/01 07:06:55;;;;;;;0.30;0.30;;;;;;;17.77;39.25;102414.28;5100017;27;20543;-47
2023/03/01 07:09:22;;;;;;;0.30;0.30;;;;;;;17.77;39.11;102416.19;5102281;27;20035;-47
2023/03/01 07:11:48;;;;;;;0.20;0.20;;;;;;;17.77;38.92;102421.72;5110659;27;20399;-48
2023/03/01 07:14:15;;;;;;;0.30;0.30;;;;;;;17.77;39.28;102418.94;5086721;28;20525;-51
2023/03/01 07:16:40;;;;;;;0.30;0.30;;;;;;;17.76;39.06;102415.34;5103463;28;20556;-48
2023/03/01 07:19:06;;;;;;;0.30;0.30;;;;;;;17.76;39.18;102411.78;5108695;27;20051;-47
2023/03/01 07:21:32;;;;;;;0.22;0.22;;;;;;;17.75;39.15;102405.41;5111770;27;20459;-49
2023/03/01 07:23:57;;;;;;;0.30;0.30;;;;;;;17.76;39.19;102409.00;5107740;28;20403;-48
2023/03/01 07:26:23;;;;;;;0.30;0.30;;;;;;;17.77;39.29;102408.75;5102338;28;20076;-49
2023/03/01 07:28:51;;;;;;;0.20;0.20;;;;;;;17.76;39.09;102411.78;5112376;28;20058;-51
2023/03/01 07:31:17;;;;;;;0.30;0.30;;;;;;;17.75;38.99;102402.66;5119104;28;20055;-49
2023/03/01 07:33:42;;;;;;;0.30;0.30;;;;;;;17.76;39.03;102409.84;5115024;27;20051;-51
2023/03/01 07:36:09;;;;;;;0.30;0.30;;;;;;;17.76;39.13;102398.81;5118491;28;20638;-48
2023/03/01 07:38:34;;;;;;;0.38;0.38;;;;;;;17.75;39.21;102391.66;5115749;28;20502;-51
2023/03/01 07:41:01;;;;;;;0.30;0.30;;;;;;;17.76;39.07;102385.03;5100284;28;20491;-51
2023/03/01 07:43:29;;;;;;;0.30;0.30;;;;;;;17.78;39.19;102401.34;5109385;27;20086;-49
2023/03/01 07:45:58;;;;;;;0.30;0.30;;;;;;;17.77;39.33;102397.75;5100381;28;20063;-48
2023/03/01 07:55:33;;;;;;;0.30;0.30;;;;;;;17.77;38.59;102407.94;5107273;28;20090;-54
2023/03/01 07:57:59;;;;;;;0.32;0.32;;;;;;;17.77;38.47;102406.00;5101481;27;20047;-49
2023/03/01 08:00:24;;;;;;;0.30;0.30;;;;;;;17.77;39.04;102405.16;5108852;28;20051;-49
2023/03/01 08:02:50;;;;;;;0.30;0.30;;;;;;;17.76;39.03;102407.09;5100627;28;20096;-48
2023/03/01 08:05:16;;;;;;;0.30;0.30;;;;;;;17.75;37.61;102410.94;5097036;28;20044;-51
2023/03/01 08:07:42;;;;;;;0.30;0.30;;;;;;;17.74;37.11;102414.72;5102035;27;20322;-52
2023/03/01 08:10:08;;;;;;;0.20;0.20;;;;;;;17.75;36.35;102410.94;5095832;27;20061;-50
2023/03/01 08:12:34;;;;;;;0.30;0.30;;;;;;;17.75;36.36;102410.09;5103416;28;20108;-51
2023/03/01 08:14:59;;;;;;;0.30;0.30;;;;;;;17.76;37.16;102407.09;5105136;27;20055;-49
2023/03/01 08:17:25;;;;;;;0.20;0.20;;;;;;;17.79;37.66;102400.28;5103131;27;20282;-48
2023/03/01 08:19:51;;;;;;;0.30;0.30;;;;;;;17.79;39.02;102403.88;5109897;27;20091;-51
2023/03/01 08:22:16;;;;;;;0.30;0.30;;;;;;;17.79;39.34;102406.63;5120500;27;20079;-51
2023/03/01 08:24:42;;;;;;;0.30;0.30;;;;;;;17.80;38.10;102400.03;5099771;27;20419;-50
2023/03/01 08:27:08;;;;;;;0.30;0.30;;;;;;;17.80;37.53;102393.69;5106187;27;20044;-50
2023/03/01 08:29:34;;;;;;;0.30;0.30;;;;;;;17.80;37.61;102396.44;5111111;28;20055;-49
2023/03/01 08:32:00;;;;;;;0.30;0.30;;;;;;;17.82;38.76;102398.94;5111236;27;20078;-49
2023/03/01 08:34:26;;;;;;;0.30;0.30;;;;;;;17.81;39.01;102395.34;5102834;28;20035;-52
2023/03/01 08:36:52;;;;;;;0.30;0.30;;;;;;;17.83;37.99;102400.63;5115663;28;20487;-50
2023/03/01 08:39:19;;;;;;;0.30;0.30;;;;;;;17.82;39.07;102397.03;5103187;28;20059;-51
2023/03/01 08:41:46;;;;;;;0.30;0.30;;;;;;;17.82;39.22;102396.19;5094694;27;20043;-50
2023/03/01 08:44:16;;;;;;;0.30;0.30;;;;;;;17.82;39.08;102398.94;5095040;28;20401;-49
2023/03/01 08:46:41;;;;;;;;;;;;;;;17.83;39.03;102387.69;5103306;28;20051;-49
2023/03/01 08:49:10;;;;;;;0.30;0.30;;;;;;;17.83;39.09;102387.69;5099714;27;20265;-49
2023/03/01 08:51:37;;;;;;;0.30;0.30;;;;;;;17.85;39.24;102381.97;5114914;27;20128;-49
2023/03/01 08:54:04;;;;;;;0.30;0.30;;;;;;;17.86;39.10;102384.47;5098432;28;20039;-50
2023/03/01 08:56:30;;;;;;;0.20;0.20;;;;;;;17.87;39.26;102388.06;5110405;27;20052;-49
2023/03/01 08:58:56;;;;;;;0.30;0.30;;;;;;;17.85;39.19;102384.72;5095195;28;20104;-50
2023/03/01 09:01:22;;;;;;;0.30;0.30;;;;;;;17.85;39.27;102380.03;5107443;28;20108;-49
2023/03/01 09:03:48;;;;;;;0.30;0.30;;;;;;;17.85;39.29;102382.78;5071300;28;20051;-51
2023/03/01 09:06:15;;;;;;;0.38;0.38;;;;;;;17.85;39.14;102381.97;5098024;27;20047;-53
2023/03/01 09:08:43;;;;;;;0.30;0.30;;;;;;;17.85;39.19;102382.78;5070663;28;20153;-50
2023/03/01 09:11:11;;;;;;;0.20;0.20;;;;;;;17.84;39.20;102374.78;5099849;27;20043;-53
2023/03/01 09:13:37;;;;;;;0.30;0.30;;;;;;;17.65;36.19;102376.72;5101649;28;20438;-52
2023/03/01 09:16:05;;;;;;;0.30;0.30;;;;;;;17.80;38.04;102383.50;5079704;28;20570;-53
2023/03/01 09:18:32;;;;;;;0.20;0.20;;;;;;;17.83;38.80;102384.94;5102985;28;20039;-49
2023/03/01 09:21:07;;;;;;;0.30;0.30;;;;;;;17.85;38.92;102380.03;5081215;27;20099;-49
2023/03/01 09:23:36;;;;;;;0.30;0.30;;;;;;;17.85;38.72;102371.78;5101834;28;20049;-53
2023/03/01 09:26:02;;;;;;;0.20;0.20;;;;;;;17.86;38.05;102376.19;5113163;27;20075;-49
2023/03/01 09:28:28;;;;;;;0.30;0.30;;;;;;;17.70;35.56;102371.31;5093486;28;20048;-52
2023/03/01 09:30:59;;;;;;;0.20;0.20;;;;;;;17.71;35.99;102367.53;5118826;27;20054;-53
2023/03/01 09:33:26;;;;;;;0.30;0.30;;;;;;;17.78;35.63;102360.84;5106965;28;20166;-52
2023/03/01 09:36:00;;;;;;;0.30;0.30;;;;;;;17.80;35.36;102363.38;5090216;27;20500;-50
2023/03/01 09:38:26;;;;;;;0.30;0.30;;;;;;;17.84;37.13;102352.72;5101450;27;20055;-49
2023/03/01 09:40:52;;;;;;;0.25;0.25;;;;;;;17.84;36.21;102356.31;5102525;27;20150;-53
2023/03/01 09:43:27;;;;;;;0.30;0.30;;;;;;;17.86;36.31;102347.81;5099145;27;20081;-49
2023/03/01 09:45:55;;;;;;;0.30;0.30;;;;;;;17.87;37.06;102339.28;5104843;27;20043;-48
2023/03/01 09:48:23;;;;;;;0.20;0.20;;;;;;;17.70;34.90;102341.88;5097335;27;20269;-49
2023/03/01 09:50:49;;;;;;;0.20;0.20;;;;;;;17.80;35.67;102341.34;5110378;27;20043;-51
2023/03/01 09:53:20;;;;;;;0.30;0.30;;;;;;;17.85;36.94;102340.63;5077837;27;20051;-48
2023/03/01 09:55:52;;;;;;;0.30;0.30;;;;;;;17.87;38.14;102343.97;5071858;28;20490;-48
2023/03/01 09:58:34;;;;;;;0.30;0.30;;;;;;;17.88;37.79;102338.22;5100771;27;20396;-50
2023/03/01 10:01:11;;;;;;;0.30;0.30;;;;;;;17.89;37.91;102339.06;5094345;28;20070;-48
2023/03/01 10:04:12;;;;;;;0.30;0.30;;;;;;;17.89;37.52;102328.03;5106288;28;20047;-49
2023/03/01 10:06:44;;;;;;;0.30;0.30;;;;;;;17.89;37.99;102328.88;5101760;28;20236;-47
2023/03/01 10:09:12;;;;;;;0.30;0.30;;;;;;;17.90;38.17;102346.25;5093045;28;20094;-48
2023/03/01 10:11:41;;;;;;;0.20;0.20;;;;;;;17.90;38.46;102336.06;5067619;27;20047;-49
2023/03/01 10:14:30;;;;;;;0.20;0.20;;;;;;;17.91;37.95;102328.63;5089246;28;20220;-49
2023/03/01 10:17:02;;;;;;;0.30;0.30;;;;;;;17.91;38.01;102329.47;5081734;28;20097;-48
2023/03/01 10:19:34;;;;;;;0.30;0.30;;;;;;;17.90;38.32;102322.28;5090637;28;20439;-49
2023/03/01 10:22:22;;;;;;;0.30;0.30;;;;;;;17.91;38.51;102314.84;5096282;28;20039;-49
2023/03/01 10:24:50;;;;;;;0.30;0.30;;;;;;;17.92;38.58;102305.50;5081869;28;20378;-47
2023/03/01 10:27:42;;;;;;;0.20;0.20;;;;;;;17.94;38.56;102311.63;5090591;28;20043;-49
2023/03/01 10:30:22;;;;;;;0.30;0.30;;;;;;;17.94;38.58;102306.09;5091563;28;20464;-48
2023/03/01 10:32:50;;;;;;;0.30;0.30;;;;;;;17.93;38.63;102308.03;5110032;28;20040;-51
2023/03/01 10:35:19;;;;;;;0.28;0.28;;;;;;;17.94;38.55;102306.94;5087968;28;20050;-47
2023/03/01 10:37:57;;;;;;;0.20;0.20;;;;;;;17.94;38.58;102300.59;5081096;28;20048;-51
2023/03/01 10:40:23;;;;;;;0.30;0.30;;;;;;;17.94;38.28;102308.88;5080075;27;20047;-48
2023/03/01 10:42:49;;;;;;;0.30;0.30;;;;;;;17.94;38.60;102298.69;5103599;27;20062;-49
2023/03/01 10:50:45;;;;;;;0.30;0.30;;;;;;;17.95;38.71;102292.06;5172696;27;19929;-51
2023/03/01 10:53:29;;;;;;;0.30;0.30;;;;;;;17.96;38.82;102284.66;5128869;27;20459;-50
2023/03/01 10:59:00;;;;;;;0.30;0.30;;;;;;;17.96;38.29;102279.13;5166952;27;20115;-47
2023/03/01 11:01:32;;;;;;;0.30;0.30;;;;;;;17.95;38.45;102275.53;5122111;27;20046;-46
2023/03/01 11:06:43;;;;;;;0.30;0.30;;;;;;;17.99;39.39;102273.97;5158083;27;20128;-46
2023/03/01 11:09:19;;;;;;;0.30;0.30;;;;;;;17.99;39.14;102265.72;5142644;27;20046;-49
2023/03/01 11:11:45;;;;;;;0.30;0.30;;;;;;;17.99;39.12;102267.63;5112149;27;20448;-48
2023/03/01 11:14:21;;;;;;;0.30;0.30;;;;;;;17.99;39.21;102268.47;5146670;27;20482;-45
2023/03/01 11:17:15;;;;;;;0.20;0.20;;;;;;;17.99;39.06;102254.69;5126984;27;20418;-46
2023/03/01 11:19:40;;;;;;;0.30;0.30;;;;;;;17.99;38.97;102251.09;5127411;27;20074;-46
2023/03/01 11:22:14;;;;;;;0.30;0.30;;;;;;;18.04;38.99;102249.28;5145112;27;20053;-48
2023/03/01 11:24:46;;;;;;;0.22;0.22;;;;;;;18.07;37.88;102241.63;5149726;27;20492;-47
2023/03/01 11:27:19;;;;;;;0.30;0.30;;;;;;;18.04;36.49;102241.00;5152033;27;20047;-47
2023/03/01 11:29:50;;;;;;;0.30;0.30;;;;;;;18.05;38.03;102225.34;5122883;27;20050;-50
2023/03/01 11:32:16;;;;;;;0.30;0.30;;;;;;;17.99;36.71;102229.88;5133163;27;20069;-46
2023/03/01 11:35:03;;;;;;;0.30;0.30;;;;;;;18.02;37.85;102223.91;5152655;27;20397;-48
2023/03/01 11:37:38;;;;;;;0.30;0.30;;;;;;;18.03;38.77;102213.69;5149405;27;20316;-48
2023/03/01 11:40:14;;;;;;;0.30;0.30;;;;;;;17.95;35.35;102208.56;5136852;27;21565;-51
2023/03/01 11:42:50;;;;;;;0.30;0.30;;;;;;;17.88;35.45;102214.22;5129875;27;20047;-43
2023/03/01 11:45:15;;;;;;;0.20;0.20;;;;;;;17.90;35.38;102219.47;5116708;27;20046;-54
2023/03/01 11:48:09;;;;;;;0.30;0.30;;;;;;;17.76;34.26;102216.13;5135076;27;20046;-57
2023/03/01 11:50:46;;;;;;;0.22;0.22;;;;;;;17.90;34.78;102209.28;5129817;27;20070;-55